Aérodrome :
LOGIN :

S'inscrire | Disclaimer

   EN    FR    IT 

 










Légende :    VFR   VFR Marginal   IFR   IFR Intensif   IFR Très Intensif
Visi : 
Plafond : 
>= 8 km
>= 3000ft
5 à 8 km
1000 à 3000 ft
1500m à 5 km
500 à 1000 ft
800 à 1500m
200 à 500 ft
< 800m
< 200 ft
Symboles :   Orages  Brouillard  Fortes neiges  Fortes précipitations  Vent > 20 kt
SIGMETs :   Divers  Orages  Givrage  Turbulence  Onde Orograph.  Cendres Volcan.






- Altitude de l'aérodrome : 1043 ft
- Code IATA : SLD


LZSL - Sliac

DERNIER METAR :
  • 221300Z VRB02KT 9999 OVC010 M03/M04 Q1027

METARs EXPIRÉS :
  • 221230Z 03003KT 350V060 9999 OVC010 M03/M04 Q1027
  • 221200Z VRB02KT 9999 OVC010 M03/M04 Q1027
  • 221130Z VRB01KT 9999 OVC010 M03/M04 Q1028
  • 221100Z VRB02KT 9999 OVC009 M04/M04 Q1029

TAF TAF LZSL
Valide du 22 à 12h jusqu'au 22 à 21h UTC


221100Z 2212/2221 26005KT 9999 SCT009 OVC013
BECMG 2212/2214 CAVOK
BECMG 2217/2219 33009KT 9999 SCT035



MET'MAP, la Météo Aéronautique d'un coup d'oeil ! - Copyright ORBIFLY Décembre 2007 - Disclaimer

ORBIFLY MET'MAP TEAM :

Programmation & Développement : Alexandra Zaïnal
Sur une idée originale de : Baudouin d'Aumeries
Assistance à la programmation : Marc-Olivier Méhu
Soutien technique & logistique : Manuel Goepfert

Contact : metmap@orbifly.com




SOURCES & CREDITS :

   NOAA